sensor_id;sensor_type;location;lat;lon;timestamp;P1;durP1;ratioP1;P2;durP2;ratioP2
16159;SDS011;8185;57.818;15.224;2022-07-23T00:01:46;7.37;;;2.60;;
16159;SDS011;8185;57.818;15.224;2022-07-23T00:04:13;8.23;;;2.83;;
16159;SDS011;8185;57.818;15.224;2022-07-23T00:06:40;6.37;;;2.57;;
16159;SDS011;8185;57.818;15.224;2022-07-23T00:09:07;7.10;;;2.80;;
16159;SDS011;8185;57.818;15.224;2022-07-23T00:11:34;11.63;;;2.87;;
16159;SDS011;8185;57.818;15.224;2022-07-23T00:14:02;10.50;;;3.00;;
16159;SDS011;8185;57.818;15.224;2022-07-23T00:16:29;8.97;;;2.80;;
16159;SDS011;8185;57.818;15.224;2022-07-23T00:18:58;7.90;;;2.93;;
16159;SDS011;8185;57.818;15.224;2022-07-23T00:21:27;4.63;;;2.20;;
16159;SDS011;8185;57.818;15.224;2022-07-23T00:23:54;12.67;;;3.50;;
16159;SDS011;8185;57.818;15.224;2022-07-23T00:26:22;8.27;;;2.70;;
16159;SDS011;8185;57.818;15.224;2022-07-23T00:28:49;8.33;;;2.43;;
16159;SDS011;8185;57.818;15.224;2022-07-23T00:31:16;6.90;;;3.00;;
16159;SDS011;8185;57.818;15.224;2022-07-23T00:33:44;9.13;;;3.10;;
16159;SDS011;8185;57.818;15.224;2022-07-23T00:36:12;6.27;;;2.73;;
16159;SDS011;8185;57.818;15.224;2022-07-23T00:38:40;5.63;;;2.03;;
16159;SDS011;8185;57.818;15.224;2022-07-23T00:41:07;5.27;;;2.80;;
16159;SDS011;8185;57.818;15.224;2022-07-23T00:43:34;7.80;;;3.40;;
16159;SDS011;8185;57.818;15.224;2022-07-23T00:46:01;7.80;;;2.60;;
16159;SDS011;8185;57.818;15.224;2022-07-23T00:48:29;6.87;;;3.10;;
16159;SDS011;8185;57.818;15.224;2022-07-23T00:50:56;6.00;;;2.40;;
16159;SDS011;8185;57.818;15.224;2022-07-23T00:53:25;8.47;;;2.57;;
16159;SDS011;8185;57.818;15.224;2022-07-23T00:55:52;7.40;;;3.07;;
16159;SDS011;8185;57.818;15.224;2022-07-23T00:58:20;7.07;;;2.77;;
16159;SDS011;8185;57.818;15.224;2022-07-23T01:00:47;7.30;;;3.07;;
16159;SDS011;8185;57.818;15.224;2022-07-23T01:03:14;7.10;;;3.00;;
16159;SDS011;8185;57.818;15.224;2022-07-23T01:05:41;7.67;;;2.90;;
16159;SDS011;8185;57.818;15.224;2022-07-23T01:08:09;6.43;;;2.73;;
16159;SDS011;8185;57.818;15.224;2022-07-23T01:10:37;5.03;;;3.00;;
16159;SDS011;8185;57.818;15.224;2022-07-23T01:13:07;5.87;;;2.90;;
16159;SDS011;8185;57.818;15.224;2022-07-23T01:15:36;6.63;;;2.90;;
16159;SDS011;8185;57.818;15.224;2022-07-23T01:18:04;7.57;;;2.60;;
16159;SDS011;8185;57.818;15.224;2022-07-23T01:20:33;7.60;;;2.87;;
16159;SDS011;8185;57.818;15.224;2022-07-23T01:23:02;9.07;;;3.00;;
16159;SDS011;8185;57.818;15.224;2022-07-23T01:25:29;8.10;;;3.00;;
16159;SDS011;8185;57.818;15.224;2022-07-23T01:27:56;5.57;;;2.87;;
16159;SDS011;8185;57.818;15.224;2022-07-23T01:30:23;7.10;;;2.83;;
16159;SDS011;8185;57.818;15.224;2022-07-23T01:32:51;6.43;;;2.43;;
16159;SDS011;8185;57.818;15.224;2022-07-23T01:35:18;5.73;;;2.70;;
16159;SDS011;8185;57.818;15.224;2022-07-23T01:37:45;6.03;;;2.97;;
16159;SDS011;8185;57.818;15.224;2022-07-23T01:40:14;6.07;;;2.73;;
16159;SDS011;8185;57.818;15.224;2022-07-23T01:42:41;9.07;;;3.53;;
16159;SDS011;8185;57.818;15.224;2022-07-23T01:45:09;5.83;;;2.70;;
16159;SDS011;8185;57.818;15.224;2022-07-23T01:47:36;8.67;;;3.07;;
16159;SDS011;8185;57.818;15.224;2022-07-23T01:50:04;4.23;;;2.53;;
16159;SDS011;8185;57.818;15.224;2022-07-23T01:52:32;9.97;;;3.60;;
16159;SDS011;8185;57.818;15.224;2022-07-23T01:54:59;8.67;;;3.57;;
16159;SDS011;8185;57.818;15.224;2022-07-23T01:57:28;9.93;;;3.53;;
16159;SDS011;8185;57.818;15.224;2022-07-23T01:59:55;7.13;;;2.97;;
16159;SDS011;8185;57.818;15.224;2022-07-23T02:02:22;9.93;;;3.83;;
16159;SDS011;8185;57.818;15.224;2022-07-23T02:04:49;7.50;;;3.17;;
16159;SDS011;8185;57.818;15.224;2022-07-23T02:07:17;8.07;;;3.10;;
16159;SDS011;8185;57.818;15.224;2022-07-23T02:09:44;8.37;;;3.30;;
16159;SDS011;8185;57.818;15.224;2022-07-23T02:12:11;9.83;;;3.37;;
16159;SDS011;8185;57.818;15.224;2022-07-23T02:14:40;6.37;;;3.10;;
16159;SDS011;8185;57.818;15.224;2022-07-23T02:17:07;9.67;;;3.87;;
16159;SDS011;8185;57.818;15.224;2022-07-23T02:19:34;7.13;;;3.37;;
16159;SDS011;8185;57.818;15.224;2022-07-23T02:22:02;12.07;;;3.77;;
16159;SDS011;8185;57.818;15.224;2022-07-23T02:24:29;9.30;;;3.53;;
16159;SDS011;8185;57.818;15.224;2022-07-23T02:26:56;6.80;;;3.70;;
16159;SDS011;8185;57.818;15.224;2022-07-23T02:29:23;9.73;;;2.80;;
16159;SDS011;8185;57.818;15.224;2022-07-23T02:31:52;5.73;;;2.97;;
16159;SDS011;8185;57.818;15.224;2022-07-23T02:34:19;8.50;;;2.93;;
16159;SDS011;8185;57.818;15.224;2022-07-23T02:36:47;13.43;;;3.33;;
16159;SDS011;8185;57.818;15.224;2022-07-23T02:39:14;9.07;;;3.60;;
16159;SDS011;8185;57.818;15.224;2022-07-23T02:41:41;8.73;;;3.67;;
16159;SDS011;8185;57.818;15.224;2022-07-23T02:44:08;7.37;;;2.83;;
16159;SDS011;8185;57.818;15.224;2022-07-23T02:46:36;16.33;;;3.73;;
16159;SDS011;8185;57.818;15.224;2022-07-23T02:49:04;10.30;;;3.53;;
16159;SDS011;8185;57.818;15.224;2022-07-23T02:51:32;6.03;;;3.10;;
16159;SDS011;8185;57.818;15.224;2022-07-23T02:53:59;5.47;;;2.80;;
16159;SDS011;8185;57.818;15.224;2022-07-23T02:56:26;10.03;;;3.30;;
16159;SDS011;8185;57.818;15.224;2022-07-23T02:58:54;9.07;;;3.43;;
16159;SDS011;8185;57.818;15.224;2022-07-23T03:01:21;13.83;;;3.33;;
16159;SDS011;8185;57.818;15.224;2022-07-23T03:03:48;8.37;;;3.67;;
16159;SDS011;8185;57.818;15.224;2022-07-23T03:06:17;6.73;;;3.60;;
16159;SDS011;8185;57.818;15.224;2022-07-23T03:08:45;6.30;;;2.93;;
16159;SDS011;8185;57.818;15.224;2022-07-23T03:11:12;7.83;;;3.40;;
16159;SDS011;8185;57.818;15.224;2022-07-23T03:13:39;7.60;;;3.67;;
16159;SDS011;8185;57.818;15.224;2022-07-23T03:16:07;8.43;;;3.20;;
16159;SDS011;8185;57.818;15.224;2022-07-23T03:18:34;10.47;;;3.37;;
16159;SDS011;8185;57.818;15.224;2022-07-23T03:21:02;8.10;;;4.00;;
16159;SDS011;8185;57.818;15.224;2022-07-23T03:23:30;9.73;;;4.17;;
16159;SDS011;8185;57.818;15.224;2022-07-23T03:25:58;4.93;;;3.00;;
16159;SDS011;8185;57.818;15.224;2022-07-23T03:28:25;9.90;;;3.87;;
16159;SDS011;8185;57.818;15.224;2022-07-23T03:30:52;5.33;;;3.07;;
16159;SDS011;8185;57.818;15.224;2022-07-23T03:33:20;3.80;;;2.63;;
16159;SDS011;8185;57.818;15.224;2022-07-23T03:35:47;4.57;;;2.73;;
16159;SDS011;8185;57.818;15.224;2022-07-23T03:38:15;7.23;;;3.47;;
16159;SDS011;8185;57.818;15.224;2022-07-23T03:40:44;5.83;;;3.10;;
16159;SDS011;8185;57.818;15.224;2022-07-23T03:43:11;6.43;;;2.87;;
16159;SDS011;8185;57.818;15.224;2022-07-23T03:45:39;6.60;;;2.90;;
16159;SDS011;8185;57.818;15.224;2022-07-23T03:48:06;5.63;;;2.50;;
16159;SDS011;8185;57.818;15.224;2022-07-23T03:50:33;4.87;;;2.40;;
16159;SDS011;8185;57.818;15.224;2022-07-23T03:53:02;6.80;;;2.60;;
16159;SDS011;8185;57.818;15.224;2022-07-23T03:55:30;5.90;;;3.10;;
16159;SDS011;8185;57.818;15.224;2022-07-23T03:57:58;5.33;;;2.87;;
16159;SDS011;8185;57.818;15.224;2022-07-23T04:00:26;5.73;;;2.70;;
16159;SDS011;8185;57.818;15.224;2022-07-23T04:02:53;8.47;;;2.67;;
16159;SDS011;8185;57.818;15.224;2022-07-23T04:05:20;9.60;;;3.07;;
16159;SDS011;8185;57.818;15.224;2022-07-23T04:07:48;7.10;;;2.87;;
16159;SDS011;8185;57.818;15.224;2022-07-23T04:10:17;10.03;;;3.63;;
16159;SDS011;8185;57.818;15.224;2022-07-23T04:12:44;4.57;;;2.63;;
16159;SDS011;8185;57.818;15.224;2022-07-23T04:15:13;5.30;;;2.70;;
16159;SDS011;8185;57.818;15.224;2022-07-23T04:17:40;6.57;;;2.57;;
16159;SDS011;8185;57.818;15.224;2022-07-23T04:20:09;6.90;;;3.30;;
16159;SDS011;8185;57.818;15.224;2022-07-23T04:22:37;7.57;;;3.13;;
16159;SDS011;8185;57.818;15.224;2022-07-23T04:25:05;5.33;;;2.20;;
16159;SDS011;8185;57.818;15.224;2022-07-23T04:27:32;3.80;;;2.50;;
16159;SDS011;8185;57.818;15.224;2022-07-23T04:30:00;4.80;;;2.33;;
16159;SDS011;8185;57.818;15.224;2022-07-23T04:32:28;5.27;;;2.30;;
16159;SDS011;8185;57.818;15.224;2022-07-23T04:34:56;5.87;;;2.80;;
16159;SDS011;8185;57.818;15.224;2022-07-23T04:37:23;6.23;;;2.70;;
16159;SDS011;8185;57.818;15.224;2022-07-23T04:39:50;3.60;;;2.20;;
16159;SDS011;8185;57.818;15.224;2022-07-23T04:42:17;4.47;;;2.03;;
16159;SDS011;8185;57.818;15.224;2022-07-23T04:44:45;4.40;;;2.17;;
16159;SDS011;8185;57.818;15.224;2022-07-23T04:47:12;6.13;;;2.13;;
16159;SDS011;8185;57.818;15.224;2022-07-23T04:49:40;2.70;;;2.17;;
16159;SDS011;8185;57.818;15.224;2022-07-23T04:52:08;5.33;;;2.30;;
16159;SDS011;8185;57.818;15.224;2022-07-23T04:54:35;4.50;;;2.80;;
16159;SDS011;8185;57.818;15.224;2022-07-23T04:57:02;4.50;;;2.43;;
16159;SDS011;8185;57.818;15.224;2022-07-23T04:59:29;3.57;;;1.83;;
16159;SDS011;8185;57.818;15.224;2022-07-23T05:01:57;6.17;;;2.60;;
16159;SDS011;8185;57.818;15.224;2022-07-23T05:04:24;7.37;;;2.80;;
16159;SDS011;8185;57.818;15.224;2022-07-23T05:06:52;5.23;;;2.57;;
16159;SDS011;8185;57.818;15.224;2022-07-23T05:09:20;4.20;;;2.37;;
16159;SDS011;8185;57.818;15.224;2022-07-23T05:11:47;4.57;;;2.20;;
16159;SDS011;8185;57.818;15.224;2022-07-23T05:14:14;5.37;;;2.50;;
16159;SDS011;8185;57.818;15.224;2022-07-23T05:16:41;5.77;;;2.70;;
16159;SDS011;8185;57.818;15.224;2022-07-23T05:19:09;4.37;;;2.60;;
16159;SDS011;8185;57.818;15.224;2022-07-23T05:21:36;3.03;;;2.10;;
16159;SDS011;8185;57.818;15.224;2022-07-23T05:24:05;3.63;;;2.03;;
16159;SDS011;8185;57.818;15.224;2022-07-23T05:26:33;6.17;;;2.07;;
16159;SDS011;8185;57.818;15.224;2022-07-23T05:29:00;4.13;;;2.13;;
16159;SDS011;8185;57.818;15.224;2022-07-23T05:31:27;3.97;;;1.37;;
16159;SDS011;8185;57.818;15.224;2022-07-23T05:33:55;3.23;;;1.63;;
16159;SDS011;8185;57.818;15.224;2022-07-23T05:36:22;3.43;;;2.23;;
16159;SDS011;8185;57.818;15.224;2022-07-23T05:38:49;4.13;;;1.90;;
16159;SDS011;8185;57.818;15.224;2022-07-23T05:41:18;2.83;;;2.30;;
16159;SDS011;8185;57.818;15.224;2022-07-23T05:43:45;2.00;;;1.53;;
16159;SDS011;8185;57.818;15.224;2022-07-23T05:46:12;2.67;;;1.90;;
16159;SDS011;8185;57.818;15.224;2022-07-23T05:48:39;1.60;;;1.50;;
16159;SDS011;8185;57.818;15.224;2022-07-23T05:51:07;1.30;;;1.10;;
16159;SDS011;8185;57.818;15.224;2022-07-23T05:53:35;2.37;;;1.20;;
16159;SDS011;8185;57.818;15.224;2022-07-23T05:56:02;2.57;;;1.70;;
16159;SDS011;8185;57.818;15.224;2022-07-23T05:58:31;2.60;;;1.40;;
16159;SDS011;8185;57.818;15.224;2022-07-23T06:00:59;1.50;;;1.27;;
16159;SDS011;8185;57.818;15.224;2022-07-23T06:03:26;1.77;;;1.13;;
16159;SDS011;8185;57.818;15.224;2022-07-23T06:05:53;1.50;;;1.10;;
16159;SDS011;8185;57.818;15.224;2022-07-23T06:08:20;1.30;;;1.20;;
16159;SDS011;8185;57.818;15.224;2022-07-23T06:10:47;2.30;;;1.03;;
16159;SDS011;8185;57.818;15.224;2022-07-23T06:13:15;0.93;;;0.87;;
16159;SDS011;8185;57.818;15.224;2022-07-23T06:15:45;1.70;;;0.80;;
16159;SDS011;8185;57.818;15.224;2022-07-23T06:18:13;1.93;;;1.13;;
16159;SDS011;8185;57.818;15.224;2022-07-23T06:20:40;1.30;;;0.70;;
16159;SDS011;8185;57.818;15.224;2022-07-23T06:23:07;1.43;;;0.80;;
16159;SDS011;8185;57.818;15.224;2022-07-23T06:25:35;1.03;;;0.60;;
16159;SDS011;8185;57.818;15.224;2022-07-23T06:28:02;1.27;;;0.50;;
16159;SDS011;8185;57.818;15.224;2022-07-23T06:30:30;0.40;;;0.40;;
16159;SDS011;8185;57.818;15.224;2022-07-23T06:32:59;0.33;;;0.30;;
16159;SDS011;8185;57.818;15.224;2022-07-23T06:35:26;0.33;;;0.30;;
16159;SDS011;8185;57.818;15.224;2022-07-23T06:37:53;0.47;;;0.30;;
16159;SDS011;8185;57.818;15.224;2022-07-23T06:40:20;0.30;;;0.20;;
16159;SDS011;8185;57.818;15.224;2022-07-23T06:42:48;0.30;;;0.30;;
16159;SDS011;8185;57.818;15.224;2022-07-23T06:45:15;2.10;;;0.40;;
16159;SDS011;8185;57.818;15.224;2022-07-23T06:47:42;0.30;;;0.30;;
16159;SDS011;8185;57.818;15.224;2022-07-23T06:50:11;0.57;;;0.23;;
16159;SDS011;8185;57.818;15.224;2022-07-23T06:52:38;0.20;;;0.10;;
16159;SDS011;8185;57.818;15.224;2022-07-23T06:55:05;0.20;;;0.20;;
16159;SDS011;8185;57.818;15.224;2022-07-23T06:57:33;1.03;;;0.20;;
16159;SDS011;8185;57.818;15.224;2022-07-23T07:00:00;0.30;;;0.30;;
16159;SDS011;8185;57.818;15.224;2022-07-23T07:02:28;0.30;;;0.23;;
16159;SDS011;8185;57.818;15.224;2022-07-23T07:04:55;0.20;;;0.20;;
16159;SDS011;8185;57.818;15.224;2022-07-23T07:07:24;0.40;;;0.37;;
16159;SDS011;8185;57.818;15.224;2022-07-23T07:09:51;0.20;;;0.20;;
16159;SDS011;8185;57.818;15.224;2022-07-23T07:12:19;0.30;;;0.27;;
16159;SDS011;8185;57.818;15.224;2022-07-23T07:14:46;0.50;;;0.30;;
16159;SDS011;8185;57.818;15.224;2022-07-23T07:17:13;0.50;;;0.30;;
16159;SDS011;8185;57.818;15.224;2022-07-23T07:19:41;0.53;;;0.23;;
16159;SDS011;8185;57.818;15.224;2022-07-23T07:22:08;0.40;;;0.40;;
16159;SDS011;8185;57.818;15.224;2022-07-23T07:24:37;0.20;;;0.20;;
16159;SDS011;8185;57.818;15.224;2022-07-23T07:27:04;0.43;;;0.30;;
16159;SDS011;8185;57.818;15.224;2022-07-23T07:29:31;0.20;;;0.20;;
16159;SDS011;8185;57.818;15.224;2022-07-23T07:31:58;0.30;;;0.20;;
16159;SDS011;8185;57.818;15.224;2022-07-23T07:34:26;0.20;;;0.20;;
16159;SDS011;8185;57.818;15.224;2022-07-23T07:36:53;0.30;;;0.20;;
16159;SDS011;8185;57.818;15.224;2022-07-23T07:39:20;0.30;;;0.20;;
16159;SDS011;8185;57.818;15.224;2022-07-23T07:41:49;0.20;;;0.20;;
16159;SDS011;8185;57.818;15.224;2022-07-23T07:44:16;0.30;;;0.20;;
16159;SDS011;8185;57.818;15.224;2022-07-23T07:46:43;0.20;;;0.20;;
16159;SDS011;8185;57.818;15.224;2022-07-23T07:49:11;1.70;;;0.30;;
16159;SDS011;8185;57.818;15.224;2022-07-23T07:51:38;0.30;;;0.30;;
16159;SDS011;8185;57.818;15.224;2022-07-23T07:54:05;0.30;;;0.20;;
16159;SDS011;8185;57.818;15.224;2022-07-23T07:56:33;0.63;;;0.30;;
16159;SDS011;8185;57.818;15.224;2022-07-23T07:59:01;1.03;;;0.30;;
16159;SDS011;8185;57.818;15.224;2022-07-23T08:01:29;0.37;;;0.30;;
16159;SDS011;8185;57.818;15.224;2022-07-23T08:03:56;0.40;;;0.37;;
16159;SDS011;8185;57.818;15.224;2022-07-23T08:06:23;0.40;;;0.30;;
16159;SDS011;8185;57.818;15.224;2022-07-23T08:08:51;0.50;;;0.30;;
16159;SDS011;8185;57.818;15.224;2022-07-23T08:11:18;0.57;;;0.30;;
16159;SDS011;8185;57.818;15.224;2022-07-23T08:13:45;0.30;;;0.30;;
16159;SDS011;8185;57.818;15.224;2022-07-23T08:16:14;0.63;;;0.40;;
16159;SDS011;8185;57.818;15.224;2022-07-23T08:18:41;0.33;;;0.30;;
16159;SDS011;8185;57.818;15.224;2022-07-23T08:21:08;0.67;;;0.40;;
16159;SDS011;8185;57.818;15.224;2022-07-23T08:23:36;0.50;;;0.40;;
16159;SDS011;8185;57.818;15.224;2022-07-23T08:26:03;1.13;;;0.50;;
16159;SDS011;8185;57.818;15.224;2022-07-23T08:28:31;0.50;;;0.50;;
16159;SDS011;8185;57.818;15.224;2022-07-23T08:30:58;0.87;;;0.60;;
16159;SDS011;8185;57.818;15.224;2022-07-23T08:33:27;1.03;;;0.60;;
16159;SDS011;8185;57.818;15.224;2022-07-23T08:35:54;1.13;;;0.60;;
16159;SDS011;8185;57.818;15.224;2022-07-23T08:38:22;1.03;;;0.70;;
16159;SDS011;8185;57.818;15.224;2022-07-23T08:40:50;0.60;;;0.60;;
16159;SDS011;8185;57.818;15.224;2022-07-23T08:43:20;2.20;;;0.80;;
16159;SDS011;8185;57.818;15.224;2022-07-23T08:45:50;2.20;;;0.80;;
16159;SDS011;8185;57.818;15.224;2022-07-23T08:48:19;1.27;;;0.90;;
16159;SDS011;8185;57.818;15.224;2022-07-23T08:50:50;0.60;;;0.60;;
16159;SDS011;8185;57.818;15.224;2022-07-23T08:53:19;1.10;;;0.80;;
16159;SDS011;8185;57.818;15.224;2022-07-23T08:55:48;0.80;;;0.80;;
16159;SDS011;8185;57.818;15.224;2022-07-23T08:58:16;2.70;;;0.90;;
16159;SDS011;8185;57.818;15.224;2022-07-23T09:00:44;1.60;;;1.00;;
16159;SDS011;8185;57.818;15.224;2022-07-23T09:03:14;1.10;;;1.00;;
16159;SDS011;8185;57.818;15.224;2022-07-23T09:05:44;1.20;;;0.93;;
16159;SDS011;8185;57.818;15.224;2022-07-23T09:08:13;2.30;;;1.00;;
16159;SDS011;8185;57.818;15.224;2022-07-23T09:10:49;1.03;;;0.90;;
16159;SDS011;8185;57.818;15.224;2022-07-23T09:13:25;1.30;;;1.20;;
16159;SDS011;8185;57.818;15.224;2022-07-23T09:16:04;1.00;;;1.00;;
16159;SDS011;8185;57.818;15.224;2022-07-23T09:18:39;1.07;;;0.97;;
16159;SDS011;8185;57.818;15.224;2022-07-23T09:21:11;0.90;;;0.90;;
16159;SDS011;8185;57.818;15.224;2022-07-23T09:23:42;1.57;;;1.07;;
16159;SDS011;8185;57.818;15.224;2022-07-23T09:26:28;1.03;;;1.00;;
16159;SDS011;8185;57.818;15.224;2022-07-23T09:29:04;3.17;;;1.10;;
16159;SDS011;8185;57.818;15.224;2022-07-23T09:31:35;1.20;;;1.10;;
16159;SDS011;8185;57.818;15.224;2022-07-23T09:34:15;1.10;;;1.00;;
16159;SDS011;8185;57.818;15.224;2022-07-23T09:36:46;1.00;;;0.90;;
16159;SDS011;8185;57.818;15.224;2022-07-23T09:39:21;1.10;;;1.10;;
16159;SDS011;8185;57.818;15.224;2022-07-23T09:41:52;0.80;;;0.70;;
16159;SDS011;8185;57.818;15.224;2022-07-23T09:44:20;1.00;;;0.90;;
16159;SDS011;8185;57.818;15.224;2022-07-23T09:46:48;0.80;;;0.80;;
16159;SDS011;8185;57.818;15.224;2022-07-23T09:49:18;0.83;;;0.83;;
16159;SDS011;8185;57.818;15.224;2022-07-23T09:51:47;0.73;;;0.73;;
16159;SDS011;8185;57.818;15.224;2022-07-23T09:54:23;1.03;;;1.03;;
16159;SDS011;8185;57.818;15.224;2022-07-23T09:56:57;1.23;;;1.13;;
16159;SDS011;8185;57.818;15.224;2022-07-23T09:59:26;1.23;;;1.13;;
16159;SDS011;8185;57.818;15.224;2022-07-23T10:01:54;1.43;;;1.00;;
16159;SDS011;8185;57.818;15.224;2022-07-23T10:04:25;1.17;;;1.00;;
16159;SDS011;8185;57.818;15.224;2022-07-23T10:06:55;1.23;;;1.13;;
16159;SDS011;8185;57.818;15.224;2022-07-23T10:09:26;0.90;;;0.90;;
16159;SDS011;8185;57.818;15.224;2022-07-23T10:11:56;1.10;;;1.00;;
16159;SDS011;8185;57.818;15.224;2022-07-23T10:14:33;1.20;;;1.10;;
16159;SDS011;8185;57.818;15.224;2022-07-23T10:17:01;1.20;;;1.10;;
16159;SDS011;8185;57.818;15.224;2022-07-23T10:19:28;1.20;;;1.10;;
16159;SDS011;8185;57.818;15.224;2022-07-23T10:21:57;0.83;;;0.83;;
16159;SDS011;8185;57.818;15.224;2022-07-23T10:24:35;1.37;;;1.03;;
16159;SDS011;8185;57.818;15.224;2022-07-23T10:27:29;0.80;;;0.80;;
16159;SDS011;8185;57.818;15.224;2022-07-23T10:30:16;1.10;;;1.00;;
16159;SDS011;8185;57.818;15.224;2022-07-23T10:32:52;0.67;;;0.67;;
16159;SDS011;8185;57.818;15.224;2022-07-23T10:35:31;0.77;;;0.70;;
16159;SDS011;8185;57.818;15.224;2022-07-23T10:38:07;1.07;;;0.83;;
16159;SDS011;8185;57.818;15.224;2022-07-23T10:40:53;1.00;;;0.90;;
16159;SDS011;8185;57.818;15.224;2022-07-23T10:43:22;1.13;;;0.80;;
16159;SDS011;8185;57.818;15.224;2022-07-23T10:45:51;1.73;;;0.83;;
16159;SDS011;8185;57.818;15.224;2022-07-23T10:48:19;1.10;;;0.90;;
16159;SDS011;8185;57.818;15.224;2022-07-23T10:51:06;0.80;;;0.80;;
16159;SDS011;8185;57.818;15.224;2022-07-23T10:59:31;0.60;;;0.60;;
16159;SDS011;8185;57.818;15.224;2022-07-23T11:02:33;0.73;;;0.73;;
16159;SDS011;8185;57.818;15.224;2022-07-23T11:05:04;0.97;;;0.60;;
16159;SDS011;8185;57.818;15.224;2022-07-23T11:07:34;1.67;;;0.80;;
16159;SDS011;8185;57.818;15.224;2022-07-23T11:10:01;0.60;;;0.60;;
16159;SDS011;8185;57.818;15.224;2022-07-23T11:12:34;1.10;;;0.70;;
16159;SDS011;8185;57.818;15.224;2022-07-23T11:15:03;0.90;;;0.90;;
16159;SDS011;8185;57.818;15.224;2022-07-23T11:17:33;0.63;;;0.63;;
16159;SDS011;8185;57.818;15.224;2022-07-23T11:20:19;0.70;;;0.70;;
16159;SDS011;8185;57.818;15.224;2022-07-23T11:22:48;0.70;;;0.70;;
16159;SDS011;8185;57.818;15.224;2022-07-23T11:25:36;1.90;;;0.70;;
16159;SDS011;8185;57.818;15.224;2022-07-23T11:28:10;0.70;;;0.70;;
16159;SDS011;8185;57.818;15.224;2022-07-23T11:30:40;0.93;;;0.90;;
16159;SDS011;8185;57.818;15.224;2022-07-23T11:33:16;0.80;;;0.80;;
16159;SDS011;8185;57.818;15.224;2022-07-23T11:35:45;0.80;;;0.80;;
16159;SDS011;8185;57.818;15.224;2022-07-23T11:38:15;0.70;;;0.70;;
16159;SDS011;8185;57.818;15.224;2022-07-23T11:40:45;0.80;;;0.80;;
16159;SDS011;8185;57.818;15.224;2022-07-23T11:43:15;1.07;;;0.90;;
16159;SDS011;8185;57.818;15.224;2022-07-23T11:45:43;0.77;;;0.77;;
16159;SDS011;8185;57.818;15.224;2022-07-23T11:48:16;0.70;;;0.70;;
16159;SDS011;8185;57.818;15.224;2022-07-23T11:50:44;1.93;;;0.80;;
16159;SDS011;8185;57.818;15.224;2022-07-23T11:53:12;1.13;;;0.87;;
16159;SDS011;8185;57.818;15.224;2022-07-23T11:55:40;0.70;;;0.70;;
16159;SDS011;8185;57.818;15.224;2022-07-23T11:58:08;0.93;;;0.93;;
16159;SDS011;8185;57.818;15.224;2022-07-23T12:00:39;1.57;;;0.90;;
16159;SDS011;8185;57.818;15.224;2022-07-23T12:03:07;0.70;;;0.70;;
16159;SDS011;8185;57.818;15.224;2022-07-23T12:05:35;0.80;;;0.80;;
16159;SDS011;8185;57.818;15.224;2022-07-23T12:08:05;1.10;;;1.00;;
16159;SDS011;8185;57.818;15.224;2022-07-23T12:10:34;0.60;;;0.60;;
16159;SDS011;8185;57.818;15.224;2022-07-23T12:13:04;1.03;;;0.73;;
16159;SDS011;8185;57.818;15.224;2022-07-23T12:15:33;0.90;;;0.90;;
16159;SDS011;8185;57.818;15.224;2022-07-23T12:18:05;1.07;;;0.93;;
16159;SDS011;8185;57.818;15.224;2022-07-23T12:20:34;0.90;;;0.90;;
16159;SDS011;8185;57.818;15.224;2022-07-23T12:23:03;0.93;;;0.87;;
16159;SDS011;8185;57.818;15.224;2022-07-23T12:25:32;0.80;;;0.80;;
16159;SDS011;8185;57.818;15.224;2022-07-23T12:28:02;0.80;;;0.80;;
16159;SDS011;8185;57.818;15.224;2022-07-23T12:30:32;0.97;;;0.97;;
16159;SDS011;8185;57.818;15.224;2022-07-23T12:33:01;0.80;;;0.77;;
16159;SDS011;8185;57.818;15.224;2022-07-23T12:35:37;0.90;;;0.90;;
16159;SDS011;8185;57.818;15.224;2022-07-23T12:38:07;0.77;;;0.77;;
16159;SDS011;8185;57.818;15.224;2022-07-23T12:40:36;0.70;;;0.70;;
16159;SDS011;8185;57.818;15.224;2022-07-23T12:43:08;0.70;;;0.70;;
16159;SDS011;8185;57.818;15.224;2022-07-23T12:45:44;0.70;;;0.70;;
16159;SDS011;8185;57.818;15.224;2022-07-23T12:48:18;1.07;;;0.83;;
16159;SDS011;8185;57.818;15.224;2022-07-23T12:50:50;0.70;;;0.70;;
16159;SDS011;8185;57.818;15.224;2022-07-23T12:53:19;0.93;;;0.90;;
16159;SDS011;8185;57.818;15.224;2022-07-23T12:55:49;0.83;;;0.83;;
16159;SDS011;8185;57.818;15.224;2022-07-23T12:58:18;1.37;;;0.90;;
16159;SDS011;8185;57.818;15.224;2022-07-23T13:03:32;0.97;;;0.93;;
16159;SDS011;8185;57.818;15.224;2022-07-23T13:06:04;0.70;;;0.70;;
16159;SDS011;8185;57.818;15.224;2022-07-23T13:08:33;0.77;;;0.77;;
16159;SDS011;8185;57.818;15.224;2022-07-23T13:11:01;0.70;;;0.70;;
16159;SDS011;8185;57.818;15.224;2022-07-23T13:13:31;1.00;;;0.90;;
16159;SDS011;8185;57.818;15.224;2022-07-23T13:16:00;0.80;;;0.80;;
16159;SDS011;8185;57.818;15.224;2022-07-23T13:18:28;1.17;;;0.90;;
16159;SDS011;8185;57.818;15.224;2022-07-23T13:20:55;0.93;;;0.80;;
16159;SDS011;8185;57.818;15.224;2022-07-23T13:23:24;0.87;;;0.87;;
16159;SDS011;8185;57.818;15.224;2022-07-23T13:25:52;0.80;;;0.80;;
16159;SDS011;8185;57.818;15.224;2022-07-23T13:28:20;1.00;;;0.90;;
16159;SDS011;8185;57.818;15.224;2022-07-23T13:30:49;0.90;;;0.90;;
16159;SDS011;8185;57.818;15.224;2022-07-23T13:33:17;0.83;;;0.83;;
16159;SDS011;8185;57.818;15.224;2022-07-23T13:35:45;0.70;;;0.70;;
16159;SDS011;8185;57.818;15.224;2022-07-23T13:38:13;0.70;;;0.70;;
16159;SDS011;8185;57.818;15.224;2022-07-23T13:40:43;0.80;;;0.80;;
16159;SDS011;8185;57.818;15.224;2022-07-23T13:43:13;0.80;;;0.80;;
16159;SDS011;8185;57.818;15.224;2022-07-23T13:45:42;0.97;;;0.80;;
16159;SDS011;8185;57.818;15.224;2022-07-23T13:48:10;0.70;;;0.70;;
16159;SDS011;8185;57.818;15.224;2022-07-23T13:50:38;1.00;;;1.00;;
16159;SDS011;8185;57.818;15.224;2022-07-23T13:53:07;0.77;;;0.77;;
16159;SDS011;8185;57.818;15.224;2022-07-23T13:55:36;1.17;;;0.90;;
16159;SDS011;8185;57.818;15.224;2022-07-23T13:58:06;0.73;;;0.73;;
16159;SDS011;8185;57.818;15.224;2022-07-23T14:00:35;0.60;;;0.60;;
16159;SDS011;8185;57.818;15.224;2022-07-23T14:03:05;0.70;;;0.70;;
16159;SDS011;8185;57.818;15.224;2022-07-23T14:05:33;2.57;;;0.67;;
16159;SDS011;8185;57.818;15.224;2022-07-23T14:08:00;0.60;;;0.53;;
16159;SDS011;8185;57.818;15.224;2022-07-23T14:10:28;0.60;;;0.60;;
16159;SDS011;8185;57.818;15.224;2022-07-23T14:12:55;1.70;;;0.70;;
16159;SDS011;8185;57.818;15.224;2022-07-23T14:15:26;1.07;;;0.70;;
16159;SDS011;8185;57.818;15.224;2022-07-23T14:17:55;0.93;;;0.63;;
16159;SDS011;8185;57.818;15.224;2022-07-23T14:20:22;0.73;;;0.73;;
16159;SDS011;8185;57.818;15.224;2022-07-23T14:22:50;0.80;;;0.60;;
16159;SDS011;8185;57.818;15.224;2022-07-23T14:25:18;0.90;;;0.70;;
16159;SDS011;8185;57.818;15.224;2022-07-23T14:27:45;0.90;;;0.80;;
16159;SDS011;8185;57.818;15.224;2022-07-23T14:30:13;0.67;;;0.60;;
16159;SDS011;8185;57.818;15.224;2022-07-23T14:32:42;0.60;;;0.60;;
16159;SDS011;8185;57.818;15.224;2022-07-23T14:35:10;0.70;;;0.70;;
16159;SDS011;8185;57.818;15.224;2022-07-23T14:37:38;2.93;;;0.60;;
16159;SDS011;8185;57.818;15.224;2022-07-23T14:40:06;0.97;;;0.50;;
16159;SDS011;8185;57.818;15.224;2022-07-23T14:42:34;0.60;;;0.60;;
16159;SDS011;8185;57.818;15.224;2022-07-23T14:45:01;1.13;;;0.70;;
16159;SDS011;8185;57.818;15.224;2022-07-23T14:47:30;1.00;;;0.80;;
16159;SDS011;8185;57.818;15.224;2022-07-23T14:49:59;0.77;;;0.70;;
16159;SDS011;8185;57.818;15.224;2022-07-23T14:52:26;0.60;;;0.60;;
16159;SDS011;8185;57.818;15.224;2022-07-23T14:54:53;1.80;;;0.60;;
16159;SDS011;8185;57.818;15.224;2022-07-23T14:57:20;0.60;;;0.60;;
16159;SDS011;8185;57.818;15.224;2022-07-23T14:59:48;1.00;;;0.60;;
16159;SDS011;8185;57.818;15.224;2022-07-23T15:02:15;1.10;;;0.73;;
16159;SDS011;8185;57.818;15.224;2022-07-23T15:04:42;1.10;;;0.87;;
16159;SDS011;8185;57.818;15.224;2022-07-23T15:07:11;1.73;;;0.73;;